Time;durP1;ratioP1;P1;durP2;ratioP2;P2;SDS_P1;SDS_P2;PMS_P1;PMS_P2;Temp;Humidity;BMP_temperature;BMP_pressure;BME280_temperature;BME280_humidity;BME280_pressure;Samples;Min_cycle;Max_cycle;Signal;HPM_P1;HPM_P2
2022/05/01 00:02:03;;;;;;;3.70;3.15;;;9.90;99.90;;;;;;5071361;28;20372;-85
2022/05/01 00:08:32;;;;;;;4.53;3.13;;;9.90;99.90;;;;;;5005455;28;20447;-82
2022/05/01 00:22:05;;;;;;;6.50;3.75;;;9.20;99.90;;;;;;4877008;29;20400;-83
2022/05/01 00:24:33;;;;;;;4.28;3.28;;;9.30;99.90;;;;;;4938005;28;20881;-84
2022/05/01 00:27:01;;;;;;;7.40;3.90;;;9.10;99.90;;;;;;5028276;28;20840;-80
2022/05/01 00:30:31;;;;;;;;;;;;;;;;;;;;;
2022/05/01 00:36:36;;;;;;;5.82;3.95;;;8.80;99.90;;;;;;4992027;28;20402;-84
2022/05/01 00:40:08;;;;;;;;;;;;;;;;;;;;;
2022/05/01 00:43:08;;;;;;;5.47;3.35;;;8.80;99.90;;;;;;5007959;28;20376;-84
2022/05/01 00:46:03;;;;;;;4.40;3.40;;;8.60;99.90;;;;;;5044939;28;20906;-82
2022/05/01 00:48:42;;;;;;;5.53;3.63;;;8.50;99.90;;;;;;5054705;28;20417;-82
2022/05/01 00:51:18;;;;;;;5.43;3.45;;;8.30;99.90;;;;;;5073989;28;20405;-82
2022/05/01 00:56:50;;;;;;;4.80;3.30;;;8.00;99.90;;;;;;5074471;28;20379;-83
2022/05/01 00:59:17;;;;;;;4.50;3.50;;;8.10;99.90;;;;;;5074283;28;20390;-83
2022/05/01 01:01:46;;;;;;;4.38;3.97;;;8.50;99.90;;;;;;5056694;28;20385;-82
2022/05/01 01:04:15;;;;;;;5.30;3.55;;;8.40;99.90;;;;;;5072358;28;20385;-84
2022/05/01 01:27:37;;;;;;;;;;;;;;;;;;;;;
2022/05/01 01:33:48;;;;;;;6.43;4.32;;;7.60;99.90;;;;;;5076623;28;20395;-82
2022/05/01 01:40:06;;;;;;;8.13;5.05;;;7.40;99.90;;;;;;5083201;28;20362;-82
2022/05/01 01:49:43;;;;;;;4.97;4.30;;;7.50;99.90;;;;;;4988522;28;20432;-83
2022/05/01 01:53:13;;;;;;;5.55;4.15;;;7.60;99.90;;;;;;4975333;28;20401;-84
2022/05/01 01:55:44;;;;;;;6.83;4.00;;;7.80;99.90;;;;;;4934595;28;20400;-84
2022/05/01 01:58:40;;;;;;;7.70;4.32;;;7.90;99.90;;;;;;5040393;28;20381;-83
2022/05/01 02:01:55;;;;;;;4.93;4.20;;;7.80;99.90;;;;;;5066066;28;20387;-84
2022/05/01 02:11:57;;;;;;;5.07;3.90;;;7.50;99.90;;;;;;4955064;28;20965;-85
2022/05/01 02:14:55;;;;;;;6.38;4.30;;;7.40;99.90;;;;;;4964631;28;20837;-83
2022/05/01 02:17:52;;;;;;;4.75;3.83;;;7.50;99.90;;;;;;5013011;28;20390;-81
2022/05/01 02:23:45;;;;;;;5.60;4.38;;;7.30;99.90;;;;;;5072472;28;20366;-82
2022/05/01 02:26:10;;;;;;;5.95;4.22;;;7.20;99.90;;;;;;5047792;28;20374;-85
2022/05/01 02:28:36;;;;;;;7.73;4.17;;;7.20;99.90;;;;;;5072262;28;20458;-83
2022/05/01 02:52:47;;;;;;;3.80;3.40;;;7.00;99.90;;;;;;4975087;28;20398;-84
2022/05/01 02:56:10;;;;;;;6.10;3.75;;;7.10;99.90;;;;;;4993093;28;20408;-83
2022/05/01 02:58:39;;;;;;;5.00;3.67;;;7.00;99.90;;;;;;4992684;28;20480;-82
2022/05/01 03:01:34;;;;;;;4.57;3.65;;;7.00;99.90;;;;;;4994184;28;20880;-82
2022/05/01 03:23:52;;;;;;;3.92;3.53;;;6.40;99.90;;;;;;5076916;28;20416;-84
2022/05/01 03:26:25;;;;;;;4.88;3.88;;;6.30;99.90;;;;;;5057425;28;20493;-84
2022/05/01 03:32:20;;;;;;;4.07;3.67;;;6.40;99.90;;;;;;5038706;28;20385;-83
2022/05/01 03:34:48;;;;;;;4.30;3.37;;;6.50;99.90;;;;;;5057238;28;20398;-81
2022/05/01 03:37:20;;;;;;;5.55;3.25;;;6.60;99.90;;;;;;5057703;28;20378;-81
2022/05/01 03:47:35;;;;;;;4.57;3.10;;;6.40;99.90;;;;;;4938610;29;20425;-84
2022/05/01 03:50:33;;;;;;;;;;;;;;;;;;;;;
2022/05/01 03:53:38;;;;;;;4.95;3.50;;;6.50;99.90;;;;;;5074707;28;20739;-82
2022/05/01 03:56:13;;;;;;;4.45;3.28;;;6.40;99.90;;;;;;5051613;28;20397;-84
2022/05/01 03:58:48;;;;;;;4.63;3.58;;;6.30;99.90;;;;;;5075026;28;20366;-83
2022/05/01 04:02:00;;;;;;;4.18;3.30;;;6.30;99.90;;;;;;5056550;28;20358;-82
2022/05/01 04:05:31;;;;;;;;;;;;;;;;;;;;;
2022/05/01 04:14:57;;;;;;;5.07;3.60;;;6.50;99.90;;;;;;5055247;28;20393;-82
2022/05/01 04:18:23;;;;;;;;;;;;;;;;;;;;;
2022/05/01 04:21:48;;;;;;;7.13;3.38;;;6.50;99.90;;;;;;4973694;28;20367;-83
2022/05/01 04:24:14;;;;;;;4.72;2.92;;;6.80;99.90;;;;;;5025853;28;20382;-81
2022/05/01 04:26:46;;;;;;;5.55;3.30;;;6.90;99.90;;;;;;5054805;28;20885;-82
2022/05/01 04:30:06;;;;;;;;;;;;;;;;;;;;;
2022/05/01 04:43:44;;;;;;;;;;;;;;;;;;;;;
2022/05/01 04:46:51;;;;;;;5.22;2.88;;;8.50;99.90;;;;;;4965168;28;20458;-84
2022/05/01 04:49:39;;;;;;;4.32;2.90;;;8.70;99.90;;;;;;5034834;28;20372;-82
2022/05/01 04:52:19;;;;;;;;;;;;;;;;;;;;;
2022/05/01 04:55:09;;;;;;;3.75;2.45;;;9.30;99.90;;;;;;5075581;28;20481;-83
2022/05/01 04:57:47;;;;;;;6.70;2.60;;;9.70;99.90;;;;;;5076357;28;20457;-83
2022/05/01 05:00:54;;;;;;;2.70;2.40;;;9.90;99.90;;;;;;5057384;28;20381;-83
2022/05/01 05:14:14;;;;;;;;;;;;;;;;;;;;;
2022/05/01 05:16:43;;;;;;;3.78;2.42;;;9.80;99.90;;;;;;4979311;28;20375;-84
2022/05/01 05:43:29;;;;;;;3.90;2.20;;;10.30;99.90;;;;;;4985975;28;20390;-82
2022/05/01 05:46:04;;;;;;;4.43;2.50;;;10.30;99.90;;;;;;5005315;28;20391;-81
2022/05/01 05:52:46;;;;;;;4.38;2.65;;;10.30;99.90;;;;;;5013726;28;20482;-83
2022/05/01 06:06:47;;;;;;;4.20;2.50;;;11.40;99.90;;;;;;4972683;28;20406;-81
2022/05/01 06:09:12;;;;;;;3.55;2.75;;;11.70;99.90;;;;;;4957578;28;20411;-82
2022/05/01 06:11:43;;;;;;;4.55;2.67;;;11.90;99.90;;;;;;4967927;28;20397;-84
2022/05/01 06:14:45;;;;;;;2.97;2.67;;;12.00;99.90;;;;;;4976053;28;20397;-82
2022/05/01 06:17:12;;;;;;;4.20;2.10;;;12.20;99.90;;;;;;5021978;28;20907;-84
2022/05/01 06:20:03;;;;;;;2.47;1.90;;;12.40;99.90;;;;;;5054082;28;20382;-81
2022/05/01 06:22:28;;;;;;;4.95;1.80;;;12.50;99.90;;;;;;5071451;28;20374;-82
2022/05/01 06:24:54;;;;;;;2.85;1.73;;;12.60;99.90;;;;;;5054391;28;20398;-84
2022/05/01 06:27:49;;;;;;;2.60;1.63;;;12.80;99.90;;;;;;5053504;28;20767;-82
2022/05/01 06:30:15;;;;;;;2.08;1.50;;;12.80;99.90;;;;;;5054417;28;20394;-82
2022/05/01 06:32:42;;;;;;;2.50;1.60;;;13.20;99.90;;;;;;5072311;28;20657;-84
2022/05/01 06:35:09;;;;;;;2.15;1.50;;;;;;;;;;5052640;28;20382;-82
2022/05/01 06:37:37;;;;;;;1.63;1.48;;;13.50;97.90;;;;;;5054255;28;20432;-83
2022/05/01 06:40:06;;;;;;;2.58;1.50;;;13.70;97.20;;;;;;5054003;28;20394;-83
2022/05/01 06:42:40;;;;;;;2.38;1.58;;;13.80;96.60;;;;;;5056082;28;20382;-82
2022/05/01 06:45:09;;;;;;;5.32;1.70;;;14.00;98.00;;;;;;5057025;28;20374;-85
2022/05/01 06:47:37;;;;;;;4.15;1.98;;;14.10;99.90;;;;;;5050428;28;20372;-84
2022/05/01 06:50:15;;;;;;;2.78;1.90;;;;;;;;;;5057038;28;20400;-82
2022/05/01 06:52:42;;;;;;;3.00;2.10;;;14.40;99.90;;;;;;5058230;28;20368;-82
2022/05/01 06:55:09;;;;;;;4.18;2.20;;;14.30;94.60;;;;;;5073768;28;20435;-85
2022/05/01 06:57:35;;;;;;;3.95;2.20;;;13.90;95.90;;;;;;5075775;28;20374;-85
2022/05/01 07:00:06;;;;;;;3.05;1.83;;;13.80;97.50;;;;;;5058761;28;20443;-81
2022/05/01 07:02:31;;;;;;;4.90;2.33;;;13.50;99.90;;;;;;5058716;28;20382;-84
2022/05/01 07:04:57;;;;;;;15.53;3.53;;;13.50;99.90;;;;;;5074846;28;20382;-83
2022/05/01 07:07:22;;;;;;;4.70;2.00;;;13.60;99.90;;;;;;5056627;28;20390;-84
2022/05/01 07:09:48;;;;;;;3.20;2.27;;;13.70;99.90;;;;;;5057393;28;20465;-82
2022/05/01 07:12:13;;;;;;;4.53;2.65;;;13.80;99.90;;;;;;5058060;28;20394;-81
2022/05/01 07:14:39;;;;;;;3.73;2.37;;;13.60;99.90;;;;;;5058079;28;20389;-81
2022/05/01 07:17:05;;;;;;;6.78;2.63;;;13.50;99.90;;;;;;5075275;28;20370;-82
2022/05/01 07:19:31;;;;;;;4.30;2.30;;;13.40;99.90;;;;;;5059445;28;20615;-84
2022/05/01 07:21:56;;;;;;;4.63;2.50;;;13.40;99.90;;;;;;5069369;28;20373;-82
2022/05/01 07:24:22;;;;;;;3.58;2.50;;;13.30;99.90;;;;;;5057182;28;20404;-83
2022/05/01 07:26:47;;;;;;;6.20;3.43;;;13.40;99.90;;;;;;5074794;28;20393;-82
2022/05/01 07:29:13;;;;;;;3.03;2.10;;;13.50;99.90;;;;;;5078046;28;20416;-82
2022/05/01 07:31:39;;;;;;;4.53;2.22;;;13.20;99.90;;;;;;5074690;28;20398;-82
2022/05/01 07:34:05;;;;;;;3.92;2.20;;;13.20;99.90;;;;;;5072506;28;20862;-83
2022/05/01 07:36:32;;;;;;;3.55;2.33;;;13.20;99.90;;;;;;5074486;28;20744;-84
2022/05/01 07:40:02;;;;;;;;;;;;;;;;;;;;;
2022/05/01 07:45:57;;;;;;;;;;;;;;;;;;;;;
2022/05/01 07:48:30;;;;;;;4.07;2.42;;;13.20;99.90;;;;;;5071868;28;20739;-81
2022/05/01 07:51:24;;;;;;;3.78;2.30;;;13.00;99.90;;;;;;5055198;28;20418;-82
2022/05/01 07:53:49;;;;;;;5.90;2.40;;;13.00;99.90;;;;;;5073327;28;20381;-81
2022/05/01 07:56:28;;;;;;;4.45;2.45;;;13.30;99.90;;;;;;5072103;28;20397;-83
2022/05/01 07:58:54;;;;;;;3.87;2.50;;;13.50;99.90;;;;;;5055700;28;20382;-83
2022/05/01 08:01:58;;;;;;;6.50;2.63;;;13.60;99.90;;;;;;5053369;28;20393;-81
2022/05/01 08:04:44;;;;;;;4.75;2.50;;;13.60;99.90;;;;;;5053491;28;20430;-81
2022/05/01 08:07:22;;;;;;;4.43;2.50;;;13.70;99.90;;;;;;5053873;28;20366;-84
2022/05/01 08:09:48;;;;;;;4.57;2.25;;;13.80;99.90;;;;;;5048904;28;20826;-84
2022/05/01 08:12:13;;;;;;;6.28;2.70;;;14.20;99.90;;;;;;5051495;28;20463;-86
2022/05/01 08:14:41;;;;;;;4.70;2.53;;;14.50;97.70;;;;;;5065535;28;20372;-81
2022/05/01 08:17:08;;;;;;;5.68;2.45;;;14.60;98.10;;;;;;5053045;28;20382;-83
2022/05/01 08:22:17;;;;;;;5.22;2.30;;;14.20;99.90;;;;;;5067971;28;20633;-84
2022/05/01 08:25:05;;;;;;;;;;;;;;;;;;;;;
2022/05/01 08:27:33;;;;;;;4.13;2.35;;;14.60;99.90;;;;;;5068163;28;20378;-84
2022/05/01 08:30:00;;;;;;;4.73;2.50;;;14.70;99.90;;;;;;5068656;28;20431;-82
2022/05/01 08:32:26;;;;;;;5.68;2.45;;;14.60;99.90;;;;;;5068289;28;20405;-83
2022/05/01 08:35:03;;;;;;;9.27;2.97;;;14.70;99.90;;;;;;5050507;28;20889;-83
2022/05/01 08:37:29;;;;;;;6.72;2.30;;;14.50;99.90;;;;;;5070481;28;20467;-83
2022/05/01 08:39:54;;;;;;;4.37;2.40;;;14.70;99.90;;;;;;5072075;28;20378;-83
2022/05/01 08:42:23;;;;;;;5.35;2.75;;;14.60;99.90;;;;;;5073447;28;20378;-82
2022/05/01 08:44:52;;;;;;;7.00;2.60;;;14.60;99.90;;;;;;5071739;28;20378;-84
2022/05/01 08:47:54;;;;;;;5.13;2.25;;;14.30;99.90;;;;;;5071586;28;20432;-82
2022/05/01 08:50:21;;;;;;;9.00;2.72;;;14.30;99.90;;;;;;5029622;28;20402;-84
2022/05/01 08:52:48;;;;;;;5.28;2.90;;;14.50;99.90;;;;;;5068114;28;20389;-85
2022/05/01 08:55:16;;;;;;;5.82;2.58;;;14.90;99.90;;;;;;5068337;28;20376;-85
2022/05/01 08:57:42;;;;;;;3.13;2.25;;;15.00;99.90;;;;;;5063329;28;20926;-85
2022/05/01 09:00:08;;;;;;;3.10;2.33;;;15.10;97.00;;;;;;5050170;28;20472;-86
2022/05/01 09:02:34;;;;;;;2.67;2.30;;;14.60;99.90;;;;;;5069149;28;20810;-85
2022/05/01 09:05:00;;;;;;;4.05;2.22;;;14.70;99.90;;;;;;5049390;28;20394;-85
2022/05/01 09:07:26;;;;;;;6.40;2.25;;;14.70;99.90;;;;;;5070710;28;20800;-87
2022/05/01 09:09:53;;;;;;;6.60;2.43;;;14.70;99.90;;;;;;5045720;28;20417;-87
2022/05/01 09:15:05;;;;;;;4.90;2.67;;;15.00;99.90;;;;;;5064081;28;20365;-85
2022/05/01 09:17:30;;;;;;;4.90;1.90;;;15.10;99.90;;;;;;5062000;28;20392;-85
2022/05/01 09:20:08;;;;;;;5.63;2.20;;;15.20;99.90;;;;;;5047026;28;20390;-85
2022/05/01 09:22:55;;;;;;;6.38;2.30;;;15.20;99.90;;;;;;5046494;28;20379;-85
2022/05/01 09:25:26;;;;;;;6.28;2.40;;;;;;;;;;5066241;28;20372;-86
2022/05/01 09:28:12;;;;;;;4.15;2.30;;;;;;;;;;5065744;28;20366;-84
2022/05/01 09:30:40;;;;;;;4.32;2.17;;;16.10;93.00;;;;;;5060330;28;20932;-84
2022/05/01 09:33:18;;;;;;;4.50;1.87;;;;;;;;;;5051609;28;20366;-83
2022/05/01 09:35:44;;;;;;;3.78;2.40;;;;;;;;;;5061579;28;20446;-84
2022/05/01 09:38:23;;;;;;;3.40;1.92;;;;;;;;;;5050159;28;20701;-83
2022/05/01 09:41:00;;;;;;;;;;;;;;;;;;;;;
2022/05/01 09:46:25;;;;;;;4.68;2.47;;;;;;;;;;5067991;28;20749;-83
2022/05/01 09:49:00;;;;;;;4.40;2.47;;;;;;;;;;5047925;28;20413;-84
2022/05/01 09:51:43;;;;;;;;;;;;;;;;;;;;;
2022/05/01 09:54:24;;;;;;;5.22;2.22;;;;;;;;;;5062321;28;20760;-82
2022/05/01 09:57:06;;;;;;;3.80;2.00;;;;;;;;;;5062235;28;20830;-82
2022/05/01 09:59:53;;;;;;;4.60;2.28;;;;;;;;;;5053042;28;20453;-82
2022/05/01 10:02:37;;;;;;;6.10;2.10;;;;;;;;;;5049922;28;20874;-81
2022/05/01 10:05:24;;;;;;;3.47;2.50;;;;;;;;;;5070260;28;20371;-83
2022/05/01 10:07:50;;;;;;;4.00;2.20;;;;;;;;;;5062266;28;20381;-85
2022/05/01 10:10:36;;;;;;;4.43;2.10;;;;;;;;;;5069945;28;20358;-81
2022/05/01 10:13:28;;;;;;;3.50;2.30;;;;;;;;;;5045599;28;20370;-82
2022/05/01 10:15:55;;;;;;;3.20;2.17;;;;;;;;;;5053784;28;20393;-84
2022/05/01 10:18:31;;;;;;;3.85;2.60;;;;;;;;;;5052131;28;20370;-82
2022/05/01 10:23:52;;;;;;;6.47;2.40;;;;;;;;;;5068643;28;20439;-83
2022/05/01 10:26:52;;;;;;;3.25;2.13;;;;;;;;;;5049570;28;20396;-82
2022/05/01 10:33:00;;;;;;;5.25;2.45;;;;;;;;;;4995020;28;20405;-81
2022/05/01 10:35:45;;;;;;;5.55;2.47;;;;;;;;;;5047188;28;20996;-84
2022/05/01 10:38:37;;;;;;;3.45;2.10;;;;;;;;;;5053894;28;20378;-83
2022/05/01 10:41:07;;;;;;;2.63;1.77;;;;;;;;;;5053660;28;20525;-84
2022/05/01 10:43:53;;;;;;;2.97;1.90;;;;;;;;;;5073696;28;20373;-82
2022/05/01 10:46:29;;;;;;;3.58;2.20;;;;;;;;;;5072277;28;20397;-83
2022/05/01 10:48:58;;;;;;;5.88;1.85;;;;;;;;;;5052481;28;20378;-84
2022/05/01 10:51:47;;;;;;;4.28;2.22;;;;;;;;;;5054157;28;20389;-83
2022/05/01 10:54:13;;;;;;;4.67;2.40;;;;;;;;;;5051767;28;20424;-84
2022/05/01 10:56:46;;;;;;;4.22;2.10;;;;;;;;;;5051890;28;20493;-82
2022/05/01 10:59:42;;;;;;;5.07;2.17;;;;;;;;;;5069350;28;20362;-83
2022/05/01 11:02:28;;;;;;;3.53;2.20;;;;;;;;;;5051430;28;20736;-84
2022/05/01 11:05:17;;;;;;;3.75;2.40;;;;;;;;;;5056556;28;20402;-83
2022/05/01 11:07:46;;;;;;;5.07;2.57;;;;;;;;;;5068044;28;20897;-84
2022/05/01 11:10:31;;;;;;;3.80;2.67;;;;;;;;;;5070212;28;20438;-82
2022/05/01 11:13:04;;;;;;;4.65;2.60;;;;;;;;;;5070071;28;20461;-82
2022/05/01 11:15:44;;;;;;;4.93;2.80;;;;;;;;;;5070717;28;20455;-81
2022/05/01 11:18:13;;;;;;;5.40;2.70;;;;;;;;;;5065740;28;20369;-84
2022/05/01 11:20:39;;;;;;;4.43;2.40;;;13.80;98.00;;;;;;5069851;28;20365;-83
2022/05/01 11:23:31;;;;;;;3.83;2.40;;;13.70;98.10;;;;;;5051918;28;20377;-82
2022/05/01 11:26:13;;;;;;;3.47;2.53;;;13.70;97.90;;;;;;5051906;28;20868;-80
2022/05/01 11:28:46;;;;;;;4.40;2.33;;;13.80;97.70;;;;;;5073034;28;20370;-82
2022/05/01 11:31:36;;;;;;;3.88;2.60;;;13.80;98.00;;;;;;5071869;28;20459;-82
2022/05/01 11:34:17;;;;;;;4.22;2.28;;;13.80;98.00;;;;;;5070876;28;20365;-82
2022/05/01 11:36:58;;;;;;;3.10;2.45;;;13.80;98.10;;;;;;5073763;28;20390;-82
2022/05/01 11:39:56;;;;;;;3.47;2.33;;;13.80;98.10;;;;;;5050213;28;20405;-83
2022/05/01 11:42:25;;;;;;;4.57;2.80;;;13.90;98.40;;;;;;5035824;28;20427;-83
2022/05/01 11:44:56;;;;;;;4.72;2.70;;;14.00;98.10;;;;;;5073412;28;20366;-83
2022/05/01 11:50:23;;;;;;;4.32;2.70;;;13.80;98.20;;;;;;5069564;28;20365;-83
2022/05/01 11:52:50;;;;;;;6.43;3.33;;;13.80;98.60;;;;;;5072805;28;20862;-84
2022/05/01 11:55:19;;;;;;;3.92;2.45;;;13.80;98.30;;;;;;5073632;28;20453;-81
2022/05/01 12:03:29;;;;;;;3.25;2.22;;;13.70;98.80;;;;;;5072994;28;20374;-81
2022/05/01 12:05:55;;;;;;;3.43;2.60;;;13.70;98.70;;;;;;5054576;28;20378;-84
2022/05/01 12:08:21;;;;;;;3.27;2.30;;;13.70;98.30;;;;;;5055359;28;20382;-83
2022/05/01 12:10:48;;;;;;;4.40;2.75;;;13.50;98.90;;;;;;5058559;28;20394;-83
2022/05/01 12:13:21;;;;;;;4.82;2.70;;;13.70;98.90;;;;;;5051033;28;20385;-82
2022/05/01 12:15:48;;;;;;;4.25;2.67;;;13.90;99.10;;;;;;5071660;28;20406;-81
2022/05/01 12:18:14;;;;;;;2.97;2.57;;;13.90;98.20;;;;;;5072725;28;20405;-82
2022/05/01 12:20:41;;;;;;;5.85;2.70;;;14.00;98.50;;;;;;5072262;28;20427;-83
2022/05/01 12:23:18;;;;;;;3.78;2.40;;;14.10;98.50;;;;;;5072003;28;20386;-82
2022/05/01 12:25:50;;;;;;;3.70;2.50;;;14.20;98.40;;;;;;5072967;28;20378;-82
2022/05/01 12:28:18;;;;;;;3.85;2.75;;;14.30;98.10;;;;;;5071533;28;20806;-83
2022/05/01 12:30:49;;;;;;;3.93;3.10;;;14.20;98.00;;;;;;5053583;28;20386;-82
2022/05/01 12:33:24;;;;;;;5.30;2.75;;;14.50;97.60;;;;;;5070710;28;20369;-84
2022/05/01 12:36:22;;;;;;;5.25;2.70;;;14.60;97.20;;;;;;5044802;28;20374;-82
2022/05/01 12:39:00;;;;;;;4.72;2.40;;;14.50;96.40;;;;;;5070512;28;20864;-83
2022/05/01 12:44:12;;;;;;;4.75;2.55;;;14.90;96.00;;;;;;5028328;28;20362;-82
2022/05/01 12:46:39;;;;;;;2.95;2.47;;;15.10;95.20;;;;;;5047959;28;20376;-82
2022/05/01 12:49:05;;;;;;;4.03;2.25;;;15.30;94.60;;;;;;5066456;28;20410;-82
2022/05/01 12:51:41;;;;;;;4.65;2.08;;;15.30;94.50;;;;;;5068758;28;20405;-81
2022/05/01 12:54:17;;;;;;;5.90;2.50;;;15.20;93.70;;;;;;5073928;28;20389;-83
2022/05/01 12:56:45;;;;;;;3.63;2.42;;;15.20;94.10;;;;;;5067925;28;20390;-83
2022/05/01 12:59:31;;;;;;;3.30;2.47;;;15.40;93.90;;;;;;5052170;28;20478;-83
2022/05/01 13:01:59;;;;;;;4.82;2.25;;;15.20;93.80;;;;;;5048927;28;20854;-81
2022/05/01 13:04:29;;;;;;;3.28;2.30;;;15.40;94.00;;;;;;5069085;28;21160;-81
2022/05/01 13:06:56;;;;;;;11.00;2.67;;;15.60;93.80;;;;;;5066826;28;20830;-83
2022/05/01 13:09:23;;;;;;;4.60;2.30;;;15.90;92.90;;;;;;5065940;28;20370;-84
2022/05/01 13:12:05;;;;;;;3.22;1.90;;;16.30;92.00;;;;;;5045247;28;20921;-81
2022/05/01 13:14:33;;;;;;;4.22;2.20;;;16.50;91.70;;;;;;5065252;28;20427;-81
2022/05/01 13:17:11;;;;;;;3.38;1.83;;;16.70;90.50;;;;;;5048772;28;20419;-83
2022/05/01 13:19:38;;;;;;;3.13;1.80;;;16.90;88.60;;;;;;5051738;28;20389;-81
2022/05/01 13:22:06;;;;;;;3.42;1.88;;;16.70;88.80;;;;;;5069051;28;20502;-84
2022/05/01 13:24:33;;;;;;;3.00;1.80;;;16.50;86.60;;;;;;5069549;28;20377;-81
2022/05/01 13:27:01;;;;;;;3.08;1.80;;;16.40;88.40;;;;;;5064623;28;20382;-81
2022/05/01 13:29:30;;;;;;;2.95;1.98;;;16.40;86.80;;;;;;5052347;28;20894;-82
2022/05/01 13:31:56;;;;;;;2.72;1.98;;;16.40;88.10;;;;;;5069347;28;20394;-82
2022/05/01 13:34:23;;;;;;;4.72;1.75;;;16.50;84.50;;;;;;5065553;28;20408;-83
2022/05/01 13:36:49;;;;;;;7.50;2.03;;;16.50;85.30;;;;;;5051703;28;20382;-82
2022/05/01 13:39:15;;;;;;;3.90;1.80;;;16.70;85.60;;;;;;5066928;28;20732;-83
2022/05/01 13:47:10;;;;;;;2.20;1.70;;;16.70;86.30;;;;;;5066245;28;20441;-81
2022/05/01 13:49:36;;;;;;;4.23;2.07;;;16.90;85.20;;;;;;5066275;28;20458;-82
2022/05/01 13:52:05;;;;;;;3.33;2.00;;;17.00;86.40;;;;;;5067685;28;20397;-82
2022/05/01 13:54:31;;;;;;;4.85;2.25;;;17.00;84.50;;;;;;5051125;28;20461;-83
2022/05/01 13:56:57;;;;;;;4.97;2.17;;;16.90;84.40;;;;;;5048924;28;20382;-83
2022/05/01 13:59:23;;;;;;;3.47;2.28;;;16.80;83.10;;;;;;5050546;28;20393;-84
2022/05/01 14:01:52;;;;;;;2.88;1.83;;;16.70;83.70;;;;;;5050754;28;20460;-81
2022/05/01 14:04:22;;;;;;;3.00;2.23;;;16.60;83.50;;;;;;5041373;28;20382;-81
2022/05/01 14:06:48;;;;;;;3.22;2.45;;;;;;;;;;5046196;28;20373;-81
2022/05/01 14:09:17;;;;;;;4.68;2.90;;;;;;;;;;5062424;28;20374;-80
2022/05/01 14:12:06;;;;;;;28.00;5.38;;;;;;;;;;5043797;28;20390;-83
2022/05/01 14:14:42;;;;;;;5.60;2.90;;;;;;;;;;5043975;28;20970;-81
2022/05/01 14:17:08;;;;;;;6.63;3.15;;;;;;;;;;5067478;28;20925;-82
2022/05/01 14:19:34;;;;;;;4.45;3.05;;;;;;;;;;5068289;28;20458;-81
2022/05/01 14:22:01;;;;;;;6.63;3.33;;;;;;;;;;5064131;28;20389;-82
2022/05/01 14:24:27;;;;;;;5.22;3.22;;;;;;;;;;5049578;28;20779;-80
2022/05/01 14:26:53;;;;;;;5.43;3.35;;;;;;;;;;5047924;28;20382;-82
2022/05/01 14:29:27;;;;;;;4.00;3.00;;;;;;;;;;5066823;28;20408;-83
2022/05/01 14:32:09;;;;;;;6.40;3.27;;;;;;;;;;5069539;28;20402;-82
2022/05/01 14:34:54;;;;;;;5.07;3.33;;;;;;;;;;5062830;28;20370;-82
2022/05/01 14:37:33;;;;;;;4.05;3.00;;;;;;;;;;5065537;28;20363;-82
2022/05/01 14:40:17;;;;;;;4.60;3.00;;;;;;;;;;5061001;28;20426;-82
2022/05/01 14:42:48;;;;;;;5.07;3.10;;;;;;;;;;5050161;28;20381;-84
2022/05/01 14:45:26;;;;;;;3.30;2.78;;;;;;;;;;5065952;28;20437;-80
2022/05/01 14:48:12;;;;;;;4.65;2.78;;;;;;;;;;5066116;28;20380;-82
2022/05/01 14:50:41;;;;;;;3.67;3.03;;;;;;;;;;5047629;28;20436;-82
2022/05/01 14:53:10;;;;;;;5.47;3.80;;;;;;;;;;5047788;28;20713;-83
2022/05/01 14:56:27;;;;;;;6.03;3.20;;;;;;;;;;5047033;28;20374;-82
2022/05/01 15:07:07;;;;;;;7.80;4.27;;;15.70;91.10;;;;;;5071654;28;20360;-81
2022/05/01 15:09:35;;;;;;;5.15;3.50;;;15.70;91.20;;;;;;5067431;28;20778;-83
2022/05/01 15:12:03;;;;;;;4.40;3.90;;;15.70;91.70;;;;;;5072285;28;20390;-83
2022/05/01 15:14:35;;;;;;;7.07;3.95;;;15.90;91.20;;;;;;5049420;28;20394;-83
2022/05/01 15:17:07;;;;;;;5.75;4.18;;;15.90;91.90;;;;;;5051517;28;20472;-83
2022/05/01 15:19:54;;;;;;;7.40;4.00;;;16.00;91.10;;;;;;5051630;28;20912;-82
2022/05/01 15:22:30;;;;;;;7.60;4.03;;;16.00;91.70;;;;;;5064449;28;20377;-81
2022/05/01 15:25:23;;;;;;;5.47;3.88;;;16.10;91.60;;;;;;5069125;28;20471;-82
2022/05/01 15:28:24;;;;;;;6.40;4.50;;;16.10;91.90;;;;;;5071360;28;20381;-82
2022/05/01 15:30:52;;;;;;;6.35;4.28;;;16.20;91.80;;;;;;5021031;28;20413;-81
2022/05/01 15:35:58;;;;;;;6.35;4.25;;;16.10;91.80;;;;;;5071920;28;20366;-82
2022/05/01 15:38:43;;;;;;;6.68;4.03;;;16.00;91.90;;;;;;5071208;28;20392;-83
2022/05/01 15:41:34;;;;;;;6.38;4.38;;;15.90;92.20;;;;;;5072066;28;21716;-82
2022/05/01 15:44:07;;;;;;;4.97;4.20;;;15.80;92.20;;;;;;5070740;28;20784;-82
2022/05/01 15:46:44;;;;;;;6.53;4.13;;;15.60;93.10;;;;;;5071110;28;20361;-82
2022/05/01 15:54:40;;;;;;;7.07;4.00;;;15.70;93.10;;;;;;5070467;28;20731;-83
2022/05/01 15:57:07;;;;;;;5.60;4.03;;;15.70;93.30;;;;;;5071431;28;20390;-83
2022/05/01 16:00:04;;;;;;;6.97;4.30;;;15.80;94.00;;;;;;5065719;28;20785;-82
2022/05/01 16:02:33;;;;;;;5.90;4.23;;;15.70;93.00;;;;;;5053476;28;20410;-83
2022/05/01 16:04:58;;;;;;;5.70;3.90;;;15.90;93.40;;;;;;5061620;28;20398;-82
2022/05/01 16:07:38;;;;;;;9.43;4.33;;;15.90;93.00;;;;;;5066603;28;20871;-82
2022/05/01 16:10:28;;;;;;;5.75;3.80;;;15.90;93.70;;;;;;5060485;28;20390;-84
2022/05/01 16:12:59;;;;;;;4.50;3.53;;;16.00;93.40;;;;;;5054289;28;20460;-83
2022/05/01 16:15:33;;;;;;;4.82;3.60;;;15.80;93.10;;;;;;5054326;28;20891;-83
2022/05/01 16:18:14;;;;;;;5.18;3.70;;;15.80;93.30;;;;;;5065008;28;20376;-84
2022/05/01 16:20:44;;;;;;;6.20;3.67;;;15.80;93.60;;;;;;5045279;28;20366;-81
2022/05/01 16:23:22;;;;;;;7.40;4.27;;;15.70;93.30;;;;;;5071506;28;20366;-83
2022/05/01 16:25:51;;;;;;;5.13;3.38;;;15.60;93.00;;;;;;5053056;28;20370;-82
2022/05/01 16:28:48;;;;;;;6.25;3.15;;;15.50;93.50;;;;;;5066176;28;20990;-81
2022/05/01 16:31:17;;;;;;;4.65;3.05;;;15.60;93.40;;;;;;5047329;28;20412;-82
2022/05/01 16:34:03;;;;;;;6.88;3.15;;;15.40;93.20;;;;;;5052613;28;20439;-83
2022/05/01 16:36:34;;;;;;;4.15;2.88;;;15.50;93.50;;;;;;5052361;28;20431;-83
2022/05/01 16:39:05;;;;;;;5.65;3.35;;;15.60;94.00;;;;;;5053122;28;20732;-82
2022/05/01 16:41:34;;;;;;;3.78;2.78;;;15.60;93.60;;;;;;5070417;28;20875;-83
2022/05/01 16:44:02;;;;;;;12.47;3.70;;;15.60;93.80;;;;;;5071681;28;20744;-82
2022/05/01 16:46:29;;;;;;;3.58;2.85;;;15.70;93.80;;;;;;5050327;28;20760;-83
2022/05/01 16:48:59;;;;;;;4.60;2.80;;;15.70;92.70;;;;;;5045537;28;20737;-82
2022/05/01 16:51:26;;;;;;;4.57;2.80;;;15.70;92.70;;;;;;5067071;28;20447;-84
2022/05/01 16:53:54;;;;;;;5.07;2.80;;;15.70;93.10;;;;;;5064731;28;20843;-84
2022/05/01 16:56:20;;;;;;;31.50;5.93;;;15.80;93.20;;;;;;5065868;28;20736;-83
2022/05/01 16:58:47;;;;;;;13.70;4.03;;;15.70;93.40;;;;;;5067931;28;20379;-85
2022/05/01 17:01:25;;;;;;;7.80;3.35;;;15.70;93.20;;;;;;5049635;28;20540;-83
2022/05/01 17:03:53;;;;;;;4.90;2.70;;;15.70;93.40;;;;;;5049181;28;20386;-85
2022/05/01 17:06:47;;;;;;;10.52;3.58;;;15.80;93.10;;;;;;5049849;28;20388;-84
2022/05/01 17:09:36;;;;;;;4.53;2.60;;;15.80;93.10;;;;;;5066689;28;20959;-83
2022/05/01 17:12:29;;;;;;;4.35;3.10;;;15.80;93.10;;;;;;5049666;28;20440;-84
2022/05/01 17:15:08;;;;;;;4.23;2.67;;;15.70;92.80;;;;;;5049734;28;20467;-86
2022/05/01 17:17:50;;;;;;;3.70;2.60;;;15.60;92.90;;;;;;5067328;28;20377;-86
2022/05/01 17:20:19;;;;;;;4.53;2.50;;;15.60;93.40;;;;;;5044327;28;20933;-84
2022/05/01 17:23:00;;;;;;;4.30;2.75;;;15.50;94.00;;;;;;5049482;28;20427;-86
2022/05/01 17:25:31;;;;;;;5.55;2.92;;;15.40;93.70;;;;;;5063199;28;20443;-86
2022/05/01 17:28:01;;;;;;;3.63;2.33;;;15.40;94.10;;;;;;5064709;28;20401;-86
2022/05/01 17:30:32;;;;;;;4.28;2.53;;;15.60;94.20;;;;;;5048194;28;20493;-85
2022/05/01 17:33:06;;;;;;;7.85;2.90;;;15.60;94.20;;;;;;5059072;28;20738;-86
2022/05/01 17:35:33;;;;;;;11.70;3.35;;;15.70;94.60;;;;;;5065537;28;20431;-85
2022/05/01 17:38:04;;;;;;;12.45;3.10;;;15.70;94.00;;;;;;5047360;28;20386;-84
2022/05/01 17:40:32;;;;;;;6.18;2.90;;;15.60;94.00;;;;;;5042178;28;20376;-84
2022/05/01 17:42:58;;;;;;;4.85;2.90;;;15.60;94.40;;;;;;5059977;28;21004;-86
2022/05/01 17:45:24;;;;;;;5.53;2.20;;;15.70;94.50;;;;;;5044905;28;20386;-84
2022/05/01 17:47:52;;;;;;;13.93;3.47;;;15.70;94.00;;;;;;5067542;28;20413;-84
2022/05/01 17:50:22;;;;;;;8.32;2.90;;;15.70;95.10;;;;;;5069399;28;20406;-86
2022/05/01 17:52:53;;;;;;;3.60;2.60;;;15.70;96.00;;;;;;5067960;28;20469;-85
2022/05/01 17:55:20;;;;;;;4.07;2.53;;;15.60;94.70;;;;;;5050579;28;20519;-84
2022/05/01 17:57:46;;;;;;;15.10;4.28;;;15.50;95.60;;;;;;5029699;28;20399;-86
2022/05/01 18:00:15;;;;;;;43.80;6.70;;;15.50;96.70;;;;;;5069623;28;20753;-85
2022/05/01 18:02:50;;;;;;;12.05;3.47;;;15.50;96.70;;;;;;5047169;28;20778;-87
2022/05/01 18:11:33;;;;;;;4.85;2.50;;;15.20;98.50;;;;;;5069010;28;20396;-82
2022/05/01 18:14:02;;;;;;;3.20;2.58;;;15.00;99.50;;;;;;5069243;28;20366;-82
2022/05/01 18:16:59;;;;;;;5.30;2.50;;;14.90;99.50;;;;;;5069089;28;20385;-84
2022/05/01 18:20:08;;;;;;;4.13;2.53;;;14.70;99.50;;;;;;5061375;28;20405;-84